Terminal Aerodrome Forecast
Issued by NWS

Home | Current Version | Previous Version | Text Only | Print | Product List | Glossary Off
Versions: 1 2 3 4 5 6 7 8 9 10 11 12 13 14 15 16 17 18 19 20 21 22 23 24 25 26 27 28 29

000
FTUS45 KGGW 261300 AAA
TAFGDV
TAF AMD
KGDV 261312Z 2613/2712 VRB06KT P6SM VCFG FEW002 BKN120
      TEMPO 2613/2616 VRB04KT 1/2SM FG OVC002
     FM261800 02010KT P6SM VCSH BKN070
     FM270000 01009KT 6SM -SHRA OVC050
      AMD LTD TO CLD VIS AND WIND=

USA.gov is the U.S. government's official web portal to all federal, state and local government web resources and services.